createdAt,value
2023-04-21T00:01:02.228Z,12.30
2023-04-21T00:03:38.856Z,14.90
2023-04-21T00:06:11.817Z,13.60
2023-04-21T00:08:44.615Z,11.60
2023-04-21T00:11:17.075Z,14.50
2023-04-21T00:13:49.799Z,17.70
2023-04-21T00:16:31.662Z,13.40
2023-04-21T00:19:07.559Z,14.80
2023-04-21T00:21:45.226Z,14.20
2023-04-21T00:24:37.727Z,14.90
2023-04-21T00:27:11.859Z,13.50
2023-04-21T00:29:45.854Z,19.60
2023-04-21T00:32:18.369Z,13.20
2023-04-21T00:34:51.199Z,13.00
2023-04-21T00:37:24.448Z,17.10
2023-04-21T00:39:57.317Z,14.80
2023-04-21T00:42:30.065Z,15.50
2023-04-21T00:45:02.764Z,15.20
2023-04-21T00:47:36.630Z,13.90
2023-04-21T00:50:10.270Z,13.80
2023-04-21T00:52:47.387Z,13.90
2023-04-21T00:55:20.382Z,17.50
2023-04-21T00:57:55.487Z,17.00
2023-04-21T01:00:28.489Z,14.80
2023-04-21T01:03:03.456Z,15.20
2023-04-21T01:05:36.673Z,15.90
2023-04-21T01:08:10.229Z,12.30
2023-04-21T01:13:13.928Z,14.70
2023-04-21T01:15:46.894Z,16.50
2023-04-21T01:18:20.381Z,14.70
2023-04-21T01:20:54.505Z,16.20
2023-04-21T01:23:27.409Z,16.10
2023-04-21T01:26:00.266Z,13.90
2023-04-21T01:28:32.732Z,14.70
2023-04-21T01:31:06.111Z,14.00
2023-04-21T01:33:38.741Z,16.50
2023-04-21T01:36:12.549Z,15.00
2023-04-21T01:38:45.896Z,17.20
2023-04-21T01:41:20.163Z,17.30
2023-04-21T01:43:52.772Z,16.30
2023-04-21T01:46:25.568Z,17.80
2023-04-21T01:48:58.152Z,15.10
2023-04-21T01:51:31.776Z,14.40
2023-04-21T01:54:04.990Z,17.30
2023-04-21T01:56:38.225Z,14.50
2023-04-21T01:59:11.002Z,13.40
2023-04-21T02:01:45.432Z,14.60
2023-04-21T02:04:18.272Z,20.10
2023-04-21T02:06:51.560Z,15.50
2023-04-21T02:09:24.069Z,18.50
2023-04-21T02:12:00.940Z,17.00
2023-04-21T02:14:33.622Z,15.80
2023-04-21T02:17:06.532Z,17.00
2023-04-21T02:19:39.293Z,17.30
2023-04-21T02:22:13.463Z,18.00
2023-04-21T02:24:46.385Z,17.60
2023-04-21T02:27:19.162Z,16.00
2023-04-21T02:29:52.268Z,15.50
2023-04-21T02:32:26.206Z,17.20
2023-04-21T02:34:59.278Z,15.50
2023-04-21T02:37:33.592Z,15.50
2023-04-21T02:40:07.104Z,21.00
2023-04-21T02:42:40.157Z,17.70
2023-04-21T02:45:15.013Z,16.40
2023-04-21T02:47:47.810Z,18.80
2023-04-21T02:50:20.480Z,19.60
2023-04-21T02:52:53.381Z,17.50
2023-04-21T02:55:26.609Z,18.50
2023-04-21T02:57:59.370Z,15.80
2023-04-21T03:00:32.597Z,17.50
2023-04-21T03:03:05.737Z,20.30
2023-04-21T03:05:38.694Z,15.60
2023-04-21T03:08:11.972Z,17.40
2023-04-21T03:10:44.855Z,16.90
2023-04-21T03:13:18.202Z,17.10
2023-04-21T03:15:51.212Z,17.10
2023-04-21T03:18:23.956Z,15.70
2023-04-21T03:21:03.140Z,18.00
2023-04-21T03:23:35.720Z,17.50
2023-04-21T03:26:12.291Z,16.80
2023-04-21T03:28:45.883Z,18.10
2023-04-21T03:31:18.958Z,15.80
2023-04-21T03:33:51.821Z,18.20
2023-04-21T03:36:25.451Z,22.20
2023-04-21T03:39:05.971Z,16.40
2023-04-21T03:41:45.803Z,17.40
2023-04-21T03:44:18.418Z,17.30
2023-04-21T03:46:54.116Z,15.50
2023-04-21T03:49:28.302Z,15.80
2023-04-21T03:52:00.987Z,16.50
2023-04-21T03:54:35.143Z,23.30
2023-04-21T03:57:07.907Z,16.70
2023-04-21T03:59:40.663Z,17.30
2023-04-21T04:02:13.652Z,17.00
2023-04-21T04:04:47.264Z,16.40
2023-04-21T04:09:50.831Z,19.80
2023-04-21T04:12:57.986Z,18.70
2023-04-21T04:15:30.843Z,16.40
2023-04-21T04:18:03.516Z,17.20
2023-04-21T04:20:37.102Z,18.90
2023-04-21T04:23:09.703Z,20.20
2023-04-21T04:25:43.122Z,19.70
2023-04-21T04:28:15.870Z,20.80
2023-04-21T04:30:51.114Z,18.60
2023-04-21T04:33:23.882Z,21.70
2023-04-21T04:35:57.240Z,16.10
2023-04-21T04:38:30.716Z,15.40
2023-04-21T04:41:03.512Z,20.90
2023-04-21T04:43:39.062Z,19.00
2023-04-21T04:46:13.535Z,17.20
2023-04-21T04:48:46.108Z,16.30
2023-04-21T04:51:19.052Z,19.20
2023-04-21T04:53:52.124Z,15.40
2023-04-21T04:56:25.188Z,17.70
2023-04-21T04:58:58.160Z,17.30
2023-04-21T05:01:31.953Z,16.10
2023-04-21T05:06:36.123Z,17.20
2023-04-21T05:09:11.423Z,18.30
2023-04-21T05:11:44.177Z,18.50
2023-04-21T05:14:17.521Z,17.40
2023-04-21T05:16:50.467Z,14.50
2023-04-21T05:19:23.235Z,17.10
2023-04-21T05:22:01.158Z,15.60
2023-04-21T05:24:34.712Z,15.80
2023-04-21T05:27:08.433Z,15.60
2023-04-21T05:29:42.502Z,16.50
2023-04-21T05:32:15.792Z,15.50
2023-04-21T05:34:48.488Z,17.70
2023-04-21T05:37:21.079Z,23.70
2023-04-21T05:39:55.140Z,17.90
2023-04-21T05:42:27.773Z,14.20
2023-04-21T05:45:00.272Z,16.10
2023-04-21T05:47:33.211Z,15.50
2023-04-21T05:50:06.115Z,22.20
2023-04-21T05:52:39.514Z,14.70
2023-04-21T05:55:12.762Z,22.20
2023-04-21T05:57:46.197Z,13.80
2023-04-21T06:00:20.326Z,18.60
2023-04-21T06:02:53.501Z,17.40
2023-04-21T06:05:27.071Z,16.70
2023-04-21T06:07:59.922Z,14.80
2023-04-21T06:10:32.641Z,15.40
2023-04-21T06:13:05.360Z,16.20
2023-04-21T06:15:38.055Z,16.40
2023-04-21T06:18:11.316Z,15.90
2023-04-21T06:20:51.690Z,17.40
2023-04-21T06:23:24.867Z,14.30
2023-04-21T06:26:09.055Z,16.10
2023-04-21T06:28:41.746Z,14.30
2023-04-21T06:31:15.915Z,19.80
2023-04-21T06:33:49.125Z,14.60
2023-04-21T06:36:22.111Z,16.90
2023-04-21T06:38:55.072Z,15.40
2023-04-21T06:41:27.767Z,15.70
2023-04-21T06:44:00.798Z,14.50
2023-04-21T06:46:34.041Z,15.80
2023-04-21T06:49:07.857Z,18.60
2023-04-21T06:51:40.926Z,14.50
2023-04-21T06:54:13.614Z,13.60
2023-04-21T06:56:47.006Z,20.80
2023-04-21T07:01:52.686Z,16.30
2023-04-21T07:04:30.382Z,17.20
2023-04-21T07:07:03.497Z,13.20
2023-04-21T07:09:36.322Z,14.70
2023-04-21T07:12:09.752Z,12.50
2023-04-21T07:14:42.591Z,13.90
2023-04-21T07:17:15.362Z,13.10
2023-04-21T07:19:48.021Z,15.00
2023-04-21T07:22:22.365Z,13.40
2023-04-21T07:24:55.814Z,19.50
2023-04-21T07:27:28.675Z,16.20
2023-04-21T07:30:03.999Z,15.80
2023-04-21T07:32:39.067Z,13.50
2023-04-21T07:35:12.973Z,13.20
2023-04-21T07:37:45.498Z,12.50
2023-04-21T07:40:18.536Z,16.10
2023-04-21T07:42:51.369Z,12.00
2023-04-21T07:45:24.662Z,13.30
2023-04-21T07:48:00.965Z,14.10
2023-04-21T07:50:36.097Z,14.90
2023-04-21T07:53:08.891Z,11.80
2023-04-21T07:55:42.052Z,13.40
2023-04-21T08:00:52.868Z,10.70
2023-04-21T08:03:28.678Z,12.80
2023-04-21T08:06:02.235Z,12.40
2023-04-21T08:08:35.482Z,11.50
2023-04-21T08:11:09.759Z,12.70
2023-04-21T08:13:43.467Z,11.90
2023-04-21T08:16:16.112Z,14.10
2023-04-21T08:18:48.699Z,14.70
2023-04-21T08:21:21.848Z,13.40
2023-04-21T08:23:55.677Z,10.40
2023-04-21T08:26:30.770Z,11.20
2023-04-21T08:29:04.675Z,11.50
2023-04-21T08:31:37.874Z,13.60
2023-04-21T08:34:10.430Z,11.60
2023-04-21T08:36:45.428Z,12.90
2023-04-21T08:39:18.782Z,10.80
2023-04-21T08:41:52.845Z,7.70
2023-04-21T08:44:26.024Z,14.20
2023-04-21T08:49:34.650Z,8.50
2023-04-21T08:52:07.541Z,9.70
2023-04-21T08:54:40.550Z,8.40
2023-04-21T08:57:15.916Z,11.90
2023-04-21T08:59:49.484Z,7.50
2023-04-21T09:02:24.182Z,8.10
2023-04-21T09:04:58.059Z,8.40
2023-04-21T09:07:40.283Z,11.00
2023-04-21T09:10:13.509Z,10.40
2023-04-21T09:15:17.088Z,8.00
2023-04-21T09:17:56.766Z,6.10
2023-04-21T09:20:29.799Z,5.20
2023-04-21T09:23:06.231Z,8.70
2023-04-21T09:25:41.484Z,5.90
2023-04-21T09:28:16.982Z,9.10
2023-04-21T09:30:49.532Z,8.20
2023-04-21T09:33:30.723Z,6.10
2023-04-21T09:36:07.052Z,8.10
2023-04-21T09:38:40.572Z,5.90
2023-04-21T09:41:13.155Z,5.50
2023-04-21T09:43:45.973Z,7.40
2023-04-21T09:46:20.425Z,6.90
2023-04-21T09:48:54.901Z,10.10
2023-04-21T09:51:42.827Z,5.90
2023-04-21T09:57:02.078Z,6.20
2023-04-21T09:59:38.872Z,5.90
2023-04-21T10:02:13.552Z,6.30
2023-04-21T10:05:21.976Z,4.90
2023-04-21T10:08:07.832Z,5.80
2023-04-21T10:10:41.464Z,7.50
2023-04-21T10:13:19.070Z,4.70
2023-04-21T10:16:03.188Z,5.20
2023-04-21T10:18:44.329Z,4.90
2023-04-21T10:21:22.336Z,6.50
2023-04-21T10:23:55.767Z,5.00
2023-04-21T10:26:34.487Z,4.00
2023-04-21T10:29:08.312Z,6.90
2023-04-21T10:31:52.386Z,5.60
2023-04-21T10:34:36.998Z,7.20
2023-04-21T10:37:20.902Z,4.70
2023-04-21T10:40:02.586Z,4.20
2023-04-21T10:42:39.508Z,6.40
2023-04-21T10:45:14.422Z,5.50
2023-04-21T10:47:50.111Z,5.20
2023-04-21T10:50:26.175Z,4.10
2023-04-21T10:53:11.591Z,7.90
2023-04-21T10:55:44.157Z,4.50
2023-04-21T10:58:23.323Z,5.50
2023-04-21T11:00:59.601Z,3.70
2023-04-21T11:03:38.384Z,5.90
2023-04-21T11:06:20.782Z,4.60
2023-04-21T11:09:04.099Z,5.80
2023-04-21T11:11:37.981Z,4.60
2023-04-21T11:14:10.592Z,5.60
2023-04-21T11:16:46.597Z,3.90
2023-04-21T11:19:21.006Z,6.10
2023-04-21T11:21:54.697Z,4.80
2023-04-21T11:24:27.970Z,4.20
2023-04-21T11:27:02.390Z,5.20
2023-04-21T11:29:36.985Z,4.50
2023-04-21T11:32:11.357Z,5.70
2023-04-21T11:34:44.895Z,5.30
2023-04-21T11:37:25.741Z,4.60
2023-04-21T11:40:06.659Z,6.70
2023-04-21T11:42:39.366Z,3.70
2023-04-21T11:45:22.418Z,4.90
2023-04-21T11:48:16.392Z,5.10
2023-04-21T11:50:52.407Z,3.70
2023-04-21T11:53:25.066Z,4.50
2023-04-21T11:55:58.169Z,5.30
2023-04-21T11:58:30.990Z,4.10
2023-04-21T12:01:11.033Z,4.60
2023-04-21T12:03:44.352Z,4.70
2023-04-21T12:06:24.417Z,4.40
2023-04-21T12:09:05.592Z,5.10
2023-04-21T12:11:38.918Z,7.30
2023-04-21T12:14:12.020Z,5.20
2023-04-21T12:16:44.938Z,4.80
2023-04-21T12:19:26.935Z,4.90
2023-04-21T12:22:00.167Z,6.00
2023-04-21T12:24:34.361Z,6.60
2023-04-21T12:27:09.965Z,7.10
2023-04-21T12:29:43.728Z,4.90
2023-04-21T12:32:18.781Z,5.10
2023-04-21T12:34:51.670Z,5.40
2023-04-21T12:37:24.261Z,5.20
2023-04-21T12:39:57.692Z,5.60
2023-04-21T12:42:33.821Z,4.40
2023-04-21T12:45:08.780Z,4.20
2023-04-21T12:47:45.531Z,7.60
2023-04-21T12:50:19.754Z,7.00
2023-04-21T12:52:55.604Z,4.80
2023-04-21T12:55:40.182Z,8.60
2023-04-21T12:58:20.570Z,5.80
2023-04-21T13:01:04.987Z,4.00
2023-04-21T13:03:47.838Z,7.90
2023-04-21T13:06:30.649Z,4.10
2023-04-21T13:09:09.657Z,4.50
2023-04-21T13:11:52.690Z,7.30
2023-04-21T13:14:37.368Z,7.60
2023-04-21T13:17:22.742Z,5.00
2023-04-21T13:20:10.402Z,5.30
2023-04-21T13:22:57.710Z,4.20
2023-04-21T13:25:52.866Z,4.20
2023-04-21T13:28:40.713Z,7.20
2023-04-21T13:31:27.016Z,5.30
2023-04-21T13:34:17.295Z,5.40
2023-04-21T13:37:02.981Z,5.90
2023-04-21T13:39:48.517Z,6.80
2023-04-21T13:42:27.874Z,5.10
2023-04-21T13:45:00.495Z,5.50
2023-04-21T13:47:36.435Z,3.40
2023-04-21T13:50:10.705Z,5.30
2023-04-21T13:52:43.838Z,9.50
2023-04-21T13:57:47.290Z,5.80
2023-04-21T14:00:21.357Z,6.90
2023-04-21T14:02:57.492Z,4.80
2023-04-21T14:05:30.387Z,6.20
2023-04-21T14:08:03.468Z,4.90
2023-04-21T14:10:36.198Z,3.20
2023-04-21T14:13:12.783Z,5.50
2023-04-21T14:15:50.200Z,3.70
2023-04-21T14:20:54.687Z,6.50
2023-04-21T14:23:27.817Z,4.90
2023-04-21T14:26:00.585Z,4.50
2023-04-21T14:28:36.350Z,7.40
2023-04-21T14:31:09.165Z,6.80
2023-04-21T14:36:14.534Z,7.10
2023-04-21T14:38:47.444Z,4.50
2023-04-21T14:41:20.800Z,6.20
2023-04-21T14:43:56.799Z,6.70
2023-04-21T14:46:29.975Z,7.20
2023-04-21T14:49:03.629Z,19.70
2023-04-21T14:51:44.324Z,11.60
2023-04-21T14:54:18.510Z,20.20
2023-04-21T14:57:03.366Z,7.40
2023-04-21T14:59:47.094Z,4.10
2023-04-21T15:02:20.924Z,4.20
2023-04-21T15:04:55.578Z,7.70
2023-04-21T15:07:28.158Z,4.30
2023-04-21T15:10:02.752Z,3.00
2023-04-21T15:12:36.578Z,3.80
2023-04-21T15:15:10.805Z,4.40
2023-04-21T15:17:44.782Z,5.00
2023-04-21T15:20:36.871Z,3.60
2023-04-21T15:23:16.944Z,2.80
2023-04-21T15:25:49.709Z,4.00
2023-04-21T15:28:22.921Z,4.30
2023-04-21T15:33:29.209Z,6.00
2023-04-21T15:36:02.092Z,6.90
2023-04-21T15:38:38.556Z,9.80
2023-04-21T15:41:14.100Z,4.50
2023-04-21T15:43:46.681Z,7.10
2023-04-21T15:46:19.577Z,5.40
2023-04-21T15:48:52.300Z,15.20
2023-04-21T15:51:27.141Z,6.20
2023-04-21T15:54:00.278Z,3.40
2023-04-21T15:56:34.748Z,6.30
2023-04-21T15:59:08.834Z,4.80
2023-04-21T16:01:41.614Z,4.20
2023-04-21T16:04:14.305Z,6.90
2023-04-21T16:06:49.316Z,4.80
2023-04-21T16:09:22.925Z,4.60
2023-04-21T16:11:57.092Z,17.10
2023-04-21T16:14:39.382Z,6.90
2023-04-21T16:17:20.136Z,5.80
2023-04-21T16:22:24.161Z,5.40
2023-04-21T16:24:59.109Z,8.10
2023-04-21T16:27:34.501Z,6.80
2023-04-21T16:30:08.739Z,8.70
2023-04-21T16:32:41.789Z,5.00
2023-04-21T16:35:14.979Z,6.70
2023-04-21T16:37:49.232Z,13.20
2023-04-21T16:40:22.534Z,6.40
2023-04-21T16:42:55.639Z,6.00
2023-04-21T16:45:29.728Z,4.60
2023-04-21T16:48:02.807Z,6.60
2023-04-21T16:50:38.086Z,4.10
2023-04-21T16:53:11.522Z,7.40
2023-04-21T16:55:44.108Z,10.40
2023-04-21T16:58:17.183Z,9.20
2023-04-21T17:00:49.687Z,7.00
2023-04-21T17:03:22.588Z,7.80
2023-04-21T17:05:55.452Z,7.70
2023-04-21T17:08:28.317Z,7.30
2023-04-21T17:13:35.028Z,5.80
2023-04-21T17:16:08.660Z,5.30
2023-04-21T17:18:41.705Z,9.20
2023-04-21T17:21:14.225Z,8.10
2023-04-21T17:23:47.406Z,7.40
2023-04-21T17:26:19.873Z,26.00
2023-04-21T17:28:52.729Z,29.10
2023-04-21T17:31:25.683Z,11.00
2023-04-21T17:33:58.804Z,8.40
2023-04-21T17:36:32.990Z,8.30
2023-04-21T17:39:05.873Z,6.50
2023-04-21T17:41:38.948Z,6.50
2023-04-21T17:44:11.802Z,6.40
2023-04-21T17:46:45.205Z,5.40
2023-04-21T17:49:18.618Z,8.00
2023-04-21T17:51:52.736Z,5.20
2023-04-21T17:54:26.310Z,5.40
2023-04-21T17:59:30.489Z,4.70
2023-04-21T18:02:05.776Z,4.90
2023-04-21T18:04:39.174Z,8.40
2023-04-21T18:07:12.430Z,5.60
2023-04-21T18:09:49.140Z,5.90
2023-04-21T18:12:22.325Z,4.50
2023-04-21T18:14:55.517Z,5.00
2023-04-21T18:17:28.177Z,6.10
2023-04-21T18:20:01.413Z,10.60
2023-04-21T18:22:34.371Z,10.50
2023-04-21T18:25:12.492Z,13.30
2023-04-21T18:27:47.953Z,14.60
2023-04-21T18:30:21.854Z,13.50
2023-04-21T18:32:56.655Z,11.90
2023-04-21T18:35:36.900Z,10.00
2023-04-21T18:38:13.919Z,8.20
2023-04-21T18:40:52.151Z,6.50
2023-04-21T18:43:26.929Z,7.60
2023-04-21T18:46:02.050Z,6.70
2023-04-21T18:48:36.292Z,9.40
2023-04-21T18:51:13.486Z,10.50
2023-04-21T18:53:47.642Z,8.60
2023-04-21T18:56:22.419Z,9.00
2023-04-21T18:59:00.913Z,8.50
2023-04-21T19:01:34.435Z,9.50
2023-04-21T19:04:10.296Z,9.90
2023-04-21T19:06:44.599Z,8.30
2023-04-21T19:09:17.559Z,10.00
2023-04-21T19:11:51.260Z,8.90
2023-04-21T19:14:24.191Z,8.60
2023-04-21T19:16:58.928Z,8.60
2023-04-21T19:19:31.881Z,10.40
2023-04-21T19:22:07.067Z,8.40
2023-04-21T19:24:39.938Z,8.60
2023-04-21T19:27:15.186Z,9.20
2023-04-21T19:29:48.261Z,7.30
2023-04-21T19:32:21.710Z,8.80
2023-04-21T19:37:26.267Z,7.50
2023-04-21T19:39:59.162Z,7.20
2023-04-21T19:42:32.923Z,8.90
2023-04-21T19:45:09.178Z,8.80
2023-04-21T19:47:43.600Z,9.90
2023-04-21T19:50:16.929Z,7.20
2023-04-21T19:52:50.774Z,6.50
2023-04-21T19:55:23.615Z,9.30
2023-04-21T19:57:58.287Z,8.80
2023-04-21T20:00:32.043Z,7.80
2023-04-21T20:03:08.152Z,10.30
2023-04-21T20:05:41.094Z,7.20
2023-04-21T20:08:16.734Z,9.70
2023-04-21T20:10:49.490Z,8.60
2023-04-21T20:13:22.226Z,9.50
2023-04-21T20:15:57.682Z,7.70
2023-04-21T20:18:34.123Z,10.80
2023-04-21T20:21:06.952Z,8.00
2023-04-21T20:23:39.450Z,9.50
2023-04-21T20:26:14.313Z,8.90
2023-04-21T20:28:47.157Z,8.10
2023-04-21T20:31:24.082Z,8.30
2023-04-21T20:33:56.895Z,7.90
2023-04-21T20:36:29.844Z,9.80
2023-04-21T20:39:03.154Z,8.10
2023-04-21T20:41:36.636Z,8.70
2023-04-21T20:44:12.655Z,7.30
2023-04-21T20:46:45.342Z,7.80
2023-04-21T20:49:17.929Z,8.30
2023-04-21T20:51:57.756Z,8.60
2023-04-21T20:54:30.972Z,8.00
2023-04-21T20:57:03.627Z,7.50
2023-04-21T20:59:37.146Z,6.20
2023-04-21T21:02:10.156Z,7.00
2023-04-21T21:04:42.895Z,7.50
2023-04-21T21:07:15.467Z,6.90
2023-04-21T21:09:48.612Z,5.90
2023-04-21T21:12:22.126Z,9.10
2023-04-21T21:14:55.304Z,10.20
2023-04-21T21:17:28.155Z,8.90
2023-04-21T21:20:02.160Z,9.00
2023-04-21T21:22:35.069Z,7.00
2023-04-21T21:25:08.238Z,9.50
2023-04-21T21:27:41.103Z,9.80
2023-04-21T21:30:15.172Z,7.90
2023-04-21T21:32:48.092Z,7.60
2023-04-21T21:35:21.664Z,7.50
2023-04-21T21:37:54.352Z,6.30
2023-04-21T21:40:27.208Z,7.60
2023-04-21T21:42:59.830Z,7.00
2023-04-21T21:45:32.619Z,5.50
2023-04-21T21:48:05.419Z,8.30
2023-04-21T21:50:38.035Z,6.00
2023-04-21T21:53:11.450Z,7.40
2023-04-21T21:55:44.096Z,8.30
2023-04-21T21:58:16.897Z,7.80
2023-04-21T22:00:52.638Z,7.90
2023-04-21T22:03:26.313Z,7.20
2023-04-21T22:05:59.319Z,7.60
2023-04-21T22:08:32.363Z,9.30
2023-04-21T22:11:06.388Z,9.40
2023-04-21T22:16:11.043Z,7.70
2023-04-21T22:18:44.295Z,7.80
2023-04-21T22:21:17.141Z,6.60
2023-04-21T22:23:49.574Z,10.30
2023-04-21T22:26:22.252Z,8.30
2023-04-21T22:28:55.272Z,7.70
2023-04-21T22:31:28.062Z,8.70
2023-04-21T22:34:00.796Z,8.60
2023-04-21T22:36:33.983Z,10.50
2023-04-21T22:39:08.984Z,10.70
2023-04-21T22:41:41.771Z,8.70
2023-04-21T22:44:14.380Z,8.70
2023-04-21T22:46:47.096Z,8.50
2023-04-21T22:49:19.991Z,9.50
2023-04-21T22:51:55.776Z,12.40
2023-04-21T22:54:28.895Z,11.30
2023-04-21T22:57:02.571Z,10.10
2023-04-21T23:02:06.845Z,9.80
2023-04-21T23:04:39.355Z,9.10
2023-04-21T23:07:13.633Z,10.10
2023-04-21T23:09:46.492Z,9.20
2023-04-21T23:12:19.042Z,12.20
2023-04-21T23:14:51.844Z,11.50
2023-04-21T23:17:24.516Z,10.10
2023-04-21T23:19:57.775Z,10.30
2023-04-21T23:22:30.810Z,9.40
2023-04-21T23:25:03.793Z,10.10
2023-04-21T23:27:37.013Z,9.40
2023-04-21T23:30:11.498Z,8.80
2023-04-21T23:32:45.250Z,9.40
2023-04-21T23:37:49.182Z,10.90
2023-04-21T23:40:21.775Z,11.50
2023-04-21T23:42:54.688Z,6.80
2023-04-21T23:45:27.579Z,6.90
2023-04-21T23:48:00.442Z,6.70
2023-04-21T23:50:33.181Z,10.10
2023-04-21T23:53:06.321Z,12.00
2023-04-21T23:55:38.791Z,7.70
2023-04-21T23:58:12.457Z,11.80
